Midnight Tide — YJWE2 — position and weather

sailwx.info

Track history (hours):
 
Tides and Currents Weather Stations Pressure Air Temp Water Temp Dewpoint Dewpoint Depression Visibility Wind Speed Wind Dir Waves Ship Positions

Midnight Tide

Last reported at 2017-Dec-18 21:34 UTC. Time now 2018-Jan-20 01:17 UTC.
Position N 18°16' W 063°32'.
Warning: this ship's position is 32 days out of date.

Length 62 m; draft 2.5 m.

Type: Ship (hazmat cat A). MMSI: 577366000.

Date/timePositionNaut miles runAvg speedWind from/ knotsBaromVisibWave heightAir tempDewpointWater temp
2017-Dec-18 21:34N 18°16' W 063°32'1 8.0
2017-Dec-18 21:30N 18°16' W 063°31'6 9.0
2017-Dec-18 20:51N 18°14' W 063°25'4 9.6
2017-Dec-18 20:28N 18°14' W 063°21'5 9.6
2017-Dec-18 19:58N 18°13' W 063°16'4 9.4
2017-Dec-18 19:30N 18°13' W 063°11'4 0.8
2017-Dec-18 13:39N 18°12' W 063°07'2 6.9
2017-Dec-18 13:24N 18°12' W 063°09'3 8.3
2017-Dec-18 12:59N 18°12' W 063°12'4 8.2
2017-Dec-18 12:29N 18°13' W 063°17'4 7.9
2017-Dec-18 11:59N 18°13' W 063°21'4 7.8
2017-Dec-18 11:28N 18°14' W 063°25'4 7.5
2017-Dec-18 10:59N 18°14' W 063°29'  
2017-Dec-14 02:37N 18°13' W 063°28'1 9.1
2017-Dec-14 02:27N 18°13' W 063°26'5 8.9
2017-Dec-14 01:53N 18°12' W 063°21'4 8.9
2017-Dec-14 01:28N 18°12' W 063°17'4 9.1
2017-Dec-14 00:59N 18°11' W 063°13'6 0.4
2017-Dec-13 11:48N 18°12' W 063°07'2 7.1
2017-Dec-13 11:29N 18°12' W 063°09'4 8.1
2017-Dec-13 11:00N 18°13' W 063°13'4 8.3
2017-Dec-13 10:29N 18°13' W 063°18'5 8.5
2017-Dec-13 09:56N 18°13' W 063°23'5 8.2
2017-Dec-13 09:23N 18°14' W 063°27'  
Track history (hours):
 
Tides and Currents Weather Stations Pressure Air Temp Water Temp Dewpoint Dewpoint Depression Visibility Wind Speed Wind Dir Waves Ship Positions

Midnight Tide

Last reported at 2017-Dec-18 21:34 UTC. Time now 2018-Jan-20 01:17 UTC.
Position N 18°16' W 063°32'.
Warning: this ship's position is 32 days out of date.

Length 62 m; draft 2.5 m.

Type: Ship (hazmat cat A). MMSI: 577366000.

Date/timePositionNaut miles runAvg speedWind from/ knotsBaromVisibWave heightAir tempDewpointWater temp
2017-Dec-18 21:34N 18°16' W 063°32'1 8.0
2017-Dec-18 21:30N 18°16' W 063°31'6 9.0
2017-Dec-18 20:51N 18°14' W 063°25'4 9.6
2017-Dec-18 20:28N 18°14' W 063°21'5 9.6
2017-Dec-18 19:58N 18°13' W 063°16'4 9.4
2017-Dec-18 19:30N 18°13' W 063°11'4 0.8
2017-Dec-18 13:39N 18°12' W 063°07'2 6.9
2017-Dec-18 13:24N 18°12' W 063°09'3 8.3
2017-Dec-18 12:59N 18°12' W 063°12'4 8.2
2017-Dec-18 12:29N 18°13' W 063°17'4 7.9
2017-Dec-18 11:59N 18°13' W 063°21'4 7.8
2017-Dec-18 11:28N 18°14' W 063°25'4 7.5
2017-Dec-18 10:59N 18°14' W 063°29'  
2017-Dec-14 02:37N 18°13' W 063°28'1 9.1
2017-Dec-14 02:27N 18°13' W 063°26'5 8.9
2017-Dec-14 01:53N 18°12' W 063°21'4 8.9
2017-Dec-14 01:28N 18°12' W 063°17'4 9.1
2017-Dec-14 00:59N 18°11' W 063°13'6 0.4
2017-Dec-13 11:48N 18°12' W 063°07'2 7.1
2017-Dec-13 11:29N 18°12' W 063°09'4 8.1
2017-Dec-13 11:00N 18°13' W 063°13'4 8.3
2017-Dec-13 10:29N 18°13' W 063°18'5 8.5
2017-Dec-13 09:56N 18°13' W 063°23'5 8.2
2017-Dec-13 09:23N 18°14' W 063°27'  

Dump ship's entire track history